sensor_id;sensor_type;location;lat;lon;timestamp;P1;durP1;ratioP1;P2;durP2;ratioP2
52368;SDS011;38298;50.346;3.526;2023-02-28T00:01:25;6.70;;;4.30;;
52368;SDS011;38298;50.346;3.526;2023-02-28T00:03:51;11.13;;;4.05;;
52368;SDS011;38298;50.346;3.526;2023-02-28T00:06:17;7.45;;;4.10;;
52368;SDS011;38298;50.346;3.526;2023-02-28T00:08:43;7.30;;;4.05;;
52368;SDS011;38298;50.346;3.526;2023-02-28T00:11:10;10.20;;;4.35;;
52368;SDS011;38298;50.346;3.526;2023-02-28T00:13:37;6.13;;;4.00;;
52368;SDS011;38298;50.346;3.526;2023-02-28T00:16:04;9.68;;;3.88;;
52368;SDS011;38298;50.346;3.526;2023-02-28T00:18:31;7.57;;;4.10;;
52368;SDS011;38298;50.346;3.526;2023-02-28T00:20:57;9.23;;;4.80;;
52368;SDS011;38298;50.346;3.526;2023-02-28T00:23:24;7.35;;;4.65;;
52368;SDS011;38298;50.346;3.526;2023-02-28T00:25:50;8.43;;;4.13;;
52368;SDS011;38298;50.346;3.526;2023-02-28T00:28:16;8.05;;;4.57;;
52368;SDS011;38298;50.346;3.526;2023-02-28T00:30:42;6.85;;;4.30;;
52368;SDS011;38298;50.346;3.526;2023-02-28T00:33:08;9.23;;;4.35;;
52368;SDS011;38298;50.346;3.526;2023-02-28T00:35:34;6.18;;;4.40;;
52368;SDS011;38298;50.346;3.526;2023-02-28T00:38:00;8.07;;;4.55;;
52368;SDS011;38298;50.346;3.526;2023-02-28T00:40:26;7.18;;;3.75;;
52368;SDS011;38298;50.346;3.526;2023-02-28T00:42:52;7.60;;;4.63;;
52368;SDS011;38298;50.346;3.526;2023-02-28T00:45:18;7.93;;;4.20;;
52368;SDS011;38298;50.346;3.526;2023-02-28T00:47:44;8.25;;;4.35;;
52368;SDS011;38298;50.346;3.526;2023-02-28T00:50:11;6.50;;;4.80;;
52368;SDS011;38298;50.346;3.526;2023-02-28T00:52:37;9.20;;;4.90;;
52368;SDS011;38298;50.346;3.526;2023-02-28T00:55:04;5.72;;;4.18;;
52368;SDS011;38298;50.346;3.526;2023-02-28T00:57:30;12.77;;;4.90;;
52368;SDS011;38298;50.346;3.526;2023-02-28T00:59:56;9.00;;;4.25;;
52368;SDS011;38298;50.346;3.526;2023-02-28T01:02:22;9.85;;;4.85;;
52368;SDS011;38298;50.346;3.526;2023-02-28T01:04:48;13.48;;;5.35;;
52368;SDS011;38298;50.346;3.526;2023-02-28T01:07:14;11.43;;;5.10;;
52368;SDS011;38298;50.346;3.526;2023-02-28T01:09:41;15.80;;;5.10;;
52368;SDS011;38298;50.346;3.526;2023-02-28T01:12:07;6.55;;;4.28;;
52368;SDS011;38298;50.346;3.526;2023-02-28T01:14:34;8.73;;;4.40;;
52368;SDS011;38298;50.346;3.526;2023-02-28T01:17:00;10.23;;;4.72;;
52368;SDS011;38298;50.346;3.526;2023-02-28T01:19:27;9.00;;;4.90;;
52368;SDS011;38298;50.346;3.526;2023-02-28T01:21:53;8.43;;;5.03;;
52368;SDS011;38298;50.346;3.526;2023-02-28T01:24:19;8.15;;;4.70;;
52368;SDS011;38298;50.346;3.526;2023-02-28T01:26:45;8.98;;;4.63;;
52368;SDS011;38298;50.346;3.526;2023-02-28T01:29:11;6.85;;;4.45;;
52368;SDS011;38298;50.346;3.526;2023-02-28T01:31:37;9.50;;;5.60;;
52368;SDS011;38298;50.346;3.526;2023-02-28T01:34:03;11.32;;;5.28;;
52368;SDS011;38298;50.346;3.526;2023-02-28T01:36:29;9.05;;;5.00;;
52368;SDS011;38298;50.346;3.526;2023-02-28T01:38:55;7.47;;;4.90;;
52368;SDS011;38298;50.346;3.526;2023-02-28T01:41:23;5.80;;;4.60;;
52368;SDS011;38298;50.346;3.526;2023-02-28T01:46:15;8.15;;;4.97;;
52368;SDS011;38298;50.346;3.526;2023-02-28T01:48:43;7.93;;;5.20;;
52368;SDS011;38298;50.346;3.526;2023-02-28T01:51:12;8.93;;;5.30;;
52368;SDS011;38298;50.346;3.526;2023-02-28T01:53:41;8.90;;;5.15;;
52368;SDS011;38298;50.346;3.526;2023-02-28T01:56:09;10.90;;;5.73;;
52368;SDS011;38298;50.346;3.526;2023-02-28T01:58:36;9.52;;;5.70;;
52368;SDS011;38298;50.346;3.526;2023-02-28T02:01:02;8.75;;;5.13;;
52368;SDS011;38298;50.346;3.526;2023-02-28T02:03:29;7.32;;;5.00;;
52368;SDS011;38298;50.346;3.526;2023-02-28T02:05:56;10.32;;;4.82;;
52368;SDS011;38298;50.346;3.526;2023-02-28T02:08:23;12.50;;;5.45;;
52368;SDS011;38298;50.346;3.526;2023-02-28T02:10:50;7.70;;;4.80;;
52368;SDS011;38298;50.346;3.526;2023-02-28T02:18:26;11.70;;;5.40;;
52368;SDS011;38298;50.346;3.526;2023-02-28T02:28:41;8.43;;;4.68;;
52368;SDS011;38298;50.346;3.526;2023-02-28T02:36:35;8.00;;;4.47;;
52368;SDS011;38298;50.346;3.526;2023-02-28T02:39:10;11.13;;;5.32;;
52368;SDS011;38298;50.346;3.526;2023-02-28T02:41:40;7.85;;;5.20;;
52368;SDS011;38298;50.346;3.526;2023-02-28T02:46:45;9.93;;;5.00;;
52368;SDS011;38298;50.346;3.526;2023-02-28T02:51:56;8.57;;;5.50;;
52368;SDS011;38298;50.346;3.526;2023-02-28T02:54:25;12.70;;;5.50;;
52368;SDS011;38298;50.346;3.526;2023-02-28T02:56:54;6.63;;;5.23;;
52368;SDS011;38298;50.346;3.526;2023-02-28T02:59:21;11.68;;;5.10;;
52368;SDS011;38298;50.346;3.526;2023-02-28T03:01:51;10.85;;;6.00;;
52368;SDS011;38298;50.346;3.526;2023-02-28T03:04:19;9.15;;;5.20;;
52368;SDS011;38298;50.346;3.526;2023-02-28T03:06:45;8.45;;;5.57;;
52368;SDS011;38298;50.346;3.526;2023-02-28T03:09:14;7.60;;;5.57;;
52368;SDS011;38298;50.346;3.526;2023-02-28T03:11:41;7.10;;;5.03;;
52368;SDS011;38298;50.346;3.526;2023-02-28T03:27:04;11.52;;;5.90;;
52368;SDS011;38298;50.346;3.526;2023-02-28T03:29:35;9.18;;;5.55;;
52368;SDS011;38298;50.346;3.526;2023-02-28T03:32:05;10.15;;;5.43;;
52368;SDS011;38298;50.346;3.526;2023-02-28T03:34:40;12.23;;;6.20;;
52368;SDS011;38298;50.346;3.526;2023-02-28T03:37:08;9.95;;;5.53;;
52368;SDS011;38298;50.346;3.526;2023-02-28T03:39:43;8.98;;;5.68;;
52368;SDS011;38298;50.346;3.526;2023-02-28T03:42:11;16.65;;;5.68;;
52368;SDS011;38298;50.346;3.526;2023-02-28T03:44:41;9.02;;;5.43;;
52368;SDS011;38298;50.346;3.526;2023-02-28T03:47:12;11.93;;;6.07;;
52368;SDS011;38298;50.346;3.526;2023-02-28T03:49:42;6.97;;;5.53;;
52368;SDS011;38298;50.346;3.526;2023-02-28T03:52:10;9.25;;;5.63;;
52368;SDS011;38298;50.346;3.526;2023-02-28T03:54:41;9.60;;;6.22;;
52368;SDS011;38298;50.346;3.526;2023-02-28T03:59:36;11.10;;;5.97;;
52368;SDS011;38298;50.346;3.526;2023-02-28T04:02:03;10.60;;;5.30;;
52368;SDS011;38298;50.346;3.526;2023-02-28T04:04:29;13.35;;;6.63;;
52368;SDS011;38298;50.346;3.526;2023-02-28T04:07:03;14.05;;;5.65;;
52368;SDS011;38298;50.346;3.526;2023-02-28T04:09:30;11.13;;;5.20;;
52368;SDS011;38298;50.346;3.526;2023-02-28T04:11:56;10.68;;;5.78;;
52368;SDS011;38298;50.346;3.526;2023-02-28T04:14:22;12.68;;;6.45;;
52368;SDS011;38298;50.346;3.526;2023-02-28T04:16:48;14.25;;;5.68;;
52368;SDS011;38298;50.346;3.526;2023-02-28T04:19:16;9.13;;;6.00;;
52368;SDS011;38298;50.346;3.526;2023-02-28T04:21:43;15.57;;;6.53;;
52368;SDS011;38298;50.346;3.526;2023-02-28T04:24:10;12.05;;;6.18;;
52368;SDS011;38298;50.346;3.526;2023-02-28T04:26:39;13.18;;;6.97;;
52368;SDS011;38298;50.346;3.526;2023-02-28T04:29:06;9.70;;;6.30;;
52368;SDS011;38298;50.346;3.526;2023-02-28T04:31:33;10.27;;;5.32;;
52368;SDS011;38298;50.346;3.526;2023-02-28T04:34:00;10.32;;;6.55;;
52368;SDS011;38298;50.346;3.526;2023-02-28T04:36:26;11.10;;;6.00;;
52368;SDS011;38298;50.346;3.526;2023-02-28T04:38:52;8.20;;;5.43;;
52368;SDS011;38298;50.346;3.526;2023-02-28T04:41:18;8.02;;;5.25;;
52368;SDS011;38298;50.346;3.526;2023-02-28T04:43:45;10.82;;;6.15;;
52368;SDS011;38298;50.346;3.526;2023-02-28T04:46:11;10.38;;;6.00;;
52368;SDS011;38298;50.346;3.526;2023-02-28T04:48:37;10.75;;;6.43;;
52368;SDS011;38298;50.346;3.526;2023-02-28T04:51:05;9.95;;;6.03;;
52368;SDS011;38298;50.346;3.526;2023-02-28T04:53:32;11.35;;;6.22;;
52368;SDS011;38298;50.346;3.526;2023-02-28T04:55:58;10.73;;;6.22;;
52368;SDS011;38298;50.346;3.526;2023-02-28T04:58:24;14.30;;;6.13;;
52368;SDS011;38298;50.346;3.526;2023-02-28T05:00:50;10.15;;;6.05;;
52368;SDS011;38298;50.346;3.526;2023-02-28T05:03:17;10.50;;;6.60;;
52368;SDS011;38298;50.346;3.526;2023-02-28T05:05:43;13.63;;;6.40;;
52368;SDS011;38298;50.346;3.526;2023-02-28T05:08:09;12.25;;;6.53;;
52368;SDS011;38298;50.346;3.526;2023-02-28T05:10:35;13.07;;;6.10;;
52368;SDS011;38298;50.346;3.526;2023-02-28T05:13:01;13.30;;;6.60;;
52368;SDS011;38298;50.346;3.526;2023-02-28T05:15:27;10.05;;;5.85;;
52368;SDS011;38298;50.346;3.526;2023-02-28T05:17:53;12.13;;;6.65;;
52368;SDS011;38298;50.346;3.526;2023-02-28T05:20:19;10.35;;;6.55;;
52368;SDS011;38298;50.346;3.526;2023-02-28T05:22:46;9.00;;;6.68;;
52368;SDS011;38298;50.346;3.526;2023-02-28T05:25:13;12.55;;;6.32;;
52368;SDS011;38298;50.346;3.526;2023-02-28T05:27:41;14.52;;;5.85;;
52368;SDS011;38298;50.346;3.526;2023-02-28T05:30:07;13.25;;;6.60;;
52368;SDS011;38298;50.346;3.526;2023-02-28T05:32:36;12.45;;;6.50;;
52368;SDS011;38298;50.346;3.526;2023-02-28T05:35:02;11.70;;;6.15;;
52368;SDS011;38298;50.346;3.526;2023-02-28T05:37:29;10.13;;;7.22;;
52368;SDS011;38298;50.346;3.526;2023-02-28T05:39:55;11.60;;;7.57;;
52368;SDS011;38298;50.346;3.526;2023-02-28T05:42:21;10.93;;;6.28;;
52368;SDS011;38298;50.346;3.526;2023-02-28T05:44:47;13.80;;;6.80;;
52368;SDS011;38298;50.346;3.526;2023-02-28T05:47:13;10.93;;;6.63;;
52368;SDS011;38298;50.346;3.526;2023-02-28T05:49:40;13.57;;;7.32;;
52368;SDS011;38298;50.346;3.526;2023-02-28T05:52:07;12.05;;;6.60;;
52368;SDS011;38298;50.346;3.526;2023-02-28T05:54:33;12.27;;;6.60;;
52368;SDS011;38298;50.346;3.526;2023-02-28T05:56:59;12.18;;;6.47;;
52368;SDS011;38298;50.346;3.526;2023-02-28T05:59:25;14.50;;;7.57;;
52368;SDS011;38298;50.346;3.526;2023-02-28T06:01:51;14.50;;;7.05;;
52368;SDS011;38298;50.346;3.526;2023-02-28T06:04:19;14.52;;;7.28;;
52368;SDS011;38298;50.346;3.526;2023-02-28T06:06:46;10.82;;;6.95;;
52368;SDS011;38298;50.346;3.526;2023-02-28T06:09:12;15.27;;;7.15;;
52368;SDS011;38298;50.346;3.526;2023-02-28T06:11:38;14.15;;;7.43;;
52368;SDS011;38298;50.346;3.526;2023-02-28T06:14:04;13.38;;;7.05;;
52368;SDS011;38298;50.346;3.526;2023-02-28T06:19:17;18.17;;;8.52;;
52368;SDS011;38298;50.346;3.526;2023-02-28T06:21:43;15.57;;;7.90;;
52368;SDS011;38298;50.346;3.526;2023-02-28T06:24:09;19.42;;;8.30;;
52368;SDS011;38298;50.346;3.526;2023-02-28T06:26:35;13.73;;;7.93;;
52368;SDS011;38298;50.346;3.526;2023-02-28T06:29:01;18.17;;;8.70;;
52368;SDS011;38298;50.346;3.526;2023-02-28T06:31:28;16.13;;;7.93;;
52368;SDS011;38298;50.346;3.526;2023-02-28T06:33:54;14.32;;;8.52;;
52368;SDS011;38298;50.346;3.526;2023-02-28T06:36:21;15.20;;;7.68;;
52368;SDS011;38298;50.346;3.526;2023-02-28T06:38:47;15.23;;;8.23;;
52368;SDS011;38298;50.346;3.526;2023-02-28T06:41:19;19.95;;;8.00;;
52368;SDS011;38298;50.346;3.526;2023-02-28T06:43:45;15.80;;;8.35;;
52368;SDS011;38298;50.346;3.526;2023-02-28T06:46:12;12.68;;;6.97;;
52368;SDS011;38298;50.346;3.526;2023-02-28T06:48:39;14.82;;;7.75;;
52368;SDS011;38298;50.346;3.526;2023-02-28T06:51:06;16.88;;;7.80;;
52368;SDS011;38298;50.346;3.526;2023-02-28T06:53:33;13.60;;;8.43;;
52368;SDS011;38298;50.346;3.526;2023-02-28T06:56:03;12.18;;;8.10;;
52368;SDS011;38298;50.346;3.526;2023-02-28T06:58:30;15.65;;;7.03;;
52368;SDS011;38298;50.346;3.526;2023-02-28T07:00:56;16.67;;;7.78;;
52368;SDS011;38298;50.346;3.526;2023-02-28T07:03:22;16.63;;;8.43;;
52368;SDS011;38298;50.346;3.526;2023-02-28T07:05:49;16.50;;;7.93;;
52368;SDS011;38298;50.346;3.526;2023-02-28T07:08:15;14.60;;;8.20;;
52368;SDS011;38298;50.346;3.526;2023-02-28T07:10:42;16.15;;;8.73;;
52368;SDS011;38298;50.346;3.526;2023-02-28T07:13:08;16.90;;;8.10;;
52368;SDS011;38298;50.346;3.526;2023-02-28T07:15:35;13.00;;;8.52;;
52368;SDS011;38298;50.346;3.526;2023-02-28T07:18:01;13.98;;;8.80;;
52368;SDS011;38298;50.346;3.526;2023-02-28T07:20:28;14.38;;;8.02;;
52368;SDS011;38298;50.346;3.526;2023-02-28T07:22:54;13.48;;;8.10;;
52368;SDS011;38298;50.346;3.526;2023-02-28T07:25:24;15.00;;;8.10;;
52368;SDS011;38298;50.346;3.526;2023-02-28T07:27:50;16.75;;;7.85;;
52368;SDS011;38298;50.346;3.526;2023-02-28T07:30:16;15.02;;;7.75;;
52368;SDS011;38298;50.346;3.526;2023-02-28T07:32:43;16.77;;;7.93;;
52368;SDS011;38298;50.346;3.526;2023-02-28T07:35:09;20.38;;;8.60;;
52368;SDS011;38298;50.346;3.526;2023-02-28T07:37:35;15.95;;;8.70;;
52368;SDS011;38298;50.346;3.526;2023-02-28T07:40:04;13.75;;;7.85;;
52368;SDS011;38298;50.346;3.526;2023-02-28T07:42:37;12.55;;;8.38;;
52368;SDS011;38298;50.346;3.526;2023-02-28T07:45:04;14.02;;;8.00;;
52368;SDS011;38298;50.346;3.526;2023-02-28T07:47:30;12.35;;;7.68;;
52368;SDS011;38298;50.346;3.526;2023-02-28T07:49:57;16.88;;;8.20;;
52368;SDS011;38298;50.346;3.526;2023-02-28T07:52:23;13.35;;;8.00;;
52368;SDS011;38298;50.346;3.526;2023-02-28T07:54:49;12.05;;;7.50;;
52368;SDS011;38298;50.346;3.526;2023-02-28T07:57:16;16.10;;;8.57;;
52368;SDS011;38298;50.346;3.526;2023-02-28T07:59:42;14.32;;;7.25;;
52368;SDS011;38298;50.346;3.526;2023-02-28T08:02:14;18.30;;;8.88;;
52368;SDS011;38298;50.346;3.526;2023-02-28T08:04:41;13.50;;;7.95;;
52368;SDS011;38298;50.346;3.526;2023-02-28T08:07:07;12.95;;;7.85;;
52368;SDS011;38298;50.346;3.526;2023-02-28T08:09:33;15.80;;;7.90;;
52368;SDS011;38298;50.346;3.526;2023-02-28T08:11:59;17.25;;;7.50;;
52368;SDS011;38298;50.346;3.526;2023-02-28T08:14:26;15.55;;;7.93;;
52368;SDS011;38298;50.346;3.526;2023-02-28T08:16:52;20.00;;;8.55;;
52368;SDS011;38298;50.346;3.526;2023-02-28T08:19:19;13.75;;;8.15;;
52368;SDS011;38298;50.346;3.526;2023-02-28T08:21:45;16.70;;;8.38;;
52368;SDS011;38298;50.346;3.526;2023-02-28T08:24:11;12.60;;;8.00;;
52368;SDS011;38298;50.346;3.526;2023-02-28T08:26:37;12.98;;;7.97;;
52368;SDS011;38298;50.346;3.526;2023-02-28T08:29:03;15.82;;;7.97;;
52368;SDS011;38298;50.346;3.526;2023-02-28T08:31:29;15.02;;;8.27;;
52368;SDS011;38298;50.346;3.526;2023-02-28T08:33:55;16.45;;;9.02;;
52368;SDS011;38298;50.346;3.526;2023-02-28T08:36:24;13.43;;;8.02;;
52368;SDS011;38298;50.346;3.526;2023-02-28T08:38:50;19.52;;;7.68;;
52368;SDS011;38298;50.346;3.526;2023-02-28T08:41:16;21.73;;;7.80;;
52368;SDS011;38298;50.346;3.526;2023-02-28T08:43:42;15.75;;;7.97;;
52368;SDS011;38298;50.346;3.526;2023-02-28T08:46:10;13.82;;;7.88;;
52368;SDS011;38298;50.346;3.526;2023-02-28T08:48:37;15.18;;;7.85;;
52368;SDS011;38298;50.346;3.526;2023-02-28T08:51:04;14.02;;;7.68;;
52368;SDS011;38298;50.346;3.526;2023-02-28T08:53:31;17.50;;;7.88;;
52368;SDS011;38298;50.346;3.526;2023-02-28T08:55:58;10.48;;;7.03;;
52368;SDS011;38298;50.346;3.526;2023-02-28T08:58:24;11.65;;;6.82;;
52368;SDS011;38298;50.346;3.526;2023-02-28T09:00:51;12.85;;;6.75;;
52368;SDS011;38298;50.346;3.526;2023-02-28T09:03:17;15.00;;;6.10;;
52368;SDS011;38298;50.346;3.526;2023-02-28T09:05:51;12.07;;;5.70;;
52368;SDS011;38298;50.346;3.526;2023-02-28T09:08:17;9.63;;;6.00;;
52368;SDS011;38298;50.346;3.526;2023-02-28T09:10:43;11.60;;;5.75;;
52368;SDS011;38298;50.346;3.526;2023-02-28T09:13:10;13.73;;;6.15;;
52368;SDS011;38298;50.346;3.526;2023-02-28T09:15:37;13.02;;;6.20;;
52368;SDS011;38298;50.346;3.526;2023-02-28T09:18:03;12.57;;;5.90;;
52368;SDS011;38298;50.346;3.526;2023-02-28T09:20:29;11.52;;;5.70;;
52368;SDS011;38298;50.346;3.526;2023-02-28T09:22:55;8.95;;;5.75;;
52368;SDS011;38298;50.346;3.526;2023-02-28T09:25:21;7.53;;;4.93;;
52368;SDS011;38298;50.346;3.526;2023-02-28T09:27:47;8.73;;;5.35;;
52368;SDS011;38298;50.346;3.526;2023-02-28T09:30:13;8.00;;;4.70;;
52368;SDS011;38298;50.346;3.526;2023-02-28T09:32:39;10.15;;;4.97;;
52368;SDS011;38298;50.346;3.526;2023-02-28T09:35:06;12.25;;;4.15;;
52368;SDS011;38298;50.346;3.526;2023-02-28T09:37:38;8.30;;;4.50;;
52368;SDS011;38298;50.346;3.526;2023-02-28T09:40:04;7.68;;;4.45;;
52368;SDS011;38298;50.346;3.526;2023-02-28T09:42:31;6.93;;;3.90;;
52368;SDS011;38298;50.346;3.526;2023-02-28T09:44:58;4.22;;;3.55;;
52368;SDS011;38298;50.346;3.526;2023-02-28T09:47:30;6.82;;;3.40;;
52368;SDS011;38298;50.346;3.526;2023-02-28T09:49:58;7.95;;;4.40;;
52368;SDS011;38298;50.346;3.526;2023-02-28T09:54:55;7.30;;;3.83;;
52368;SDS011;38298;50.346;3.526;2023-02-28T10:05:15;5.72;;;3.15;;
52368;SDS011;38298;50.346;3.526;2023-02-28T10:10:27;6.78;;;4.07;;
52368;SDS011;38298;50.346;3.526;2023-02-28T10:12:54;8.80;;;3.67;;
52368;SDS011;38298;50.346;3.526;2023-02-28T10:15:22;5.15;;;3.60;;
52368;SDS011;38298;50.346;3.526;2023-02-28T10:17:51;5.32;;;3.10;;
52368;SDS011;38298;50.346;3.526;2023-02-28T10:20:20;5.70;;;2.88;;
52368;SDS011;38298;50.346;3.526;2023-02-28T10:22:57;6.63;;;3.38;;
52368;SDS011;38298;50.346;3.526;2023-02-28T10:25:25;5.43;;;3.95;;
52368;SDS011;38298;50.346;3.526;2023-02-28T10:28:00;6.57;;;3.95;;
52368;SDS011;38298;50.346;3.526;2023-02-28T10:30:27;9.40;;;3.50;;
52368;SDS011;38298;50.346;3.526;2023-02-28T10:32:53;9.52;;;3.30;;
52368;SDS011;38298;50.346;3.526;2023-02-28T10:35:21;7.75;;;3.58;;
52368;SDS011;38298;50.346;3.526;2023-02-28T10:37:58;9.00;;;3.35;;
52368;SDS011;38298;50.346;3.526;2023-02-28T10:42:57;2.35;;;1.80;;
52368;SDS011;38298;50.346;3.526;2023-02-28T10:45:24;3.30;;;2.28;;
52368;SDS011;38298;50.346;3.526;2023-02-28T10:52:55;2.72;;;2.25;;
52368;SDS011;38298;50.346;3.526;2023-02-28T10:55:29;4.00;;;2.30;;
52368;SDS011;38298;50.346;3.526;2023-02-28T10:57:56;4.18;;;2.38;;
52368;SDS011;38298;50.346;3.526;2023-02-28T11:00:23;2.95;;;2.50;;
52368;SDS011;38298;50.346;3.526;2023-02-28T11:02:53;7.45;;;2.22;;
52368;SDS011;38298;50.346;3.526;2023-02-28T11:07:52;3.20;;;2.40;;
52368;SDS011;38298;50.346;3.526;2023-02-28T11:10:19;3.58;;;2.65;;
52368;SDS011;38298;50.346;3.526;2023-02-28T11:12:46;3.05;;;2.38;;
52368;SDS011;38298;50.346;3.526;2023-02-28T11:15:26;5.80;;;2.58;;
52368;SDS011;38298;50.346;3.526;2023-02-28T11:17:53;3.15;;;2.28;;
52368;SDS011;38298;50.346;3.526;2023-02-28T11:20:21;3.40;;;2.20;;
52368;SDS011;38298;50.346;3.526;2023-02-28T11:22:48;5.15;;;2.60;;
52368;SDS011;38298;50.346;3.526;2023-02-28T11:25:23;14.88;;;6.28;;
52368;SDS011;38298;50.346;3.526;2023-02-28T11:27:50;21.95;;;7.22;;
52368;SDS011;38298;50.346;3.526;2023-02-28T11:30:30;4.45;;;2.42;;
52368;SDS011;38298;50.346;3.526;2023-02-28T11:32:57;2.38;;;2.10;;
52368;SDS011;38298;50.346;3.526;2023-02-28T11:37:59;2.40;;;2.15;;
52368;SDS011;38298;50.346;3.526;2023-02-28T11:40:39;5.13;;;2.50;;
52368;SDS011;38298;50.346;3.526;2023-02-28T11:48:25;6.32;;;2.35;;
52368;SDS011;38298;50.346;3.526;2023-02-28T12:03:16;3.55;;;2.30;;
52368;SDS011;38298;50.346;3.526;2023-02-28T12:26:32;5.32;;;2.53;;
52368;SDS011;38298;50.346;3.526;2023-02-28T12:29:02;3.63;;;1.95;;
52368;SDS011;38298;50.346;3.526;2023-02-28T12:31:30;3.00;;;2.30;;
52368;SDS011;38298;50.346;3.526;2023-02-28T12:34:00;4.20;;;2.03;;
52368;SDS011;38298;50.346;3.526;2023-02-28T12:36:27;2.38;;;1.90;;
52368;SDS011;38298;50.346;3.526;2023-02-28T12:38:59;2.67;;;1.70;;
52368;SDS011;38298;50.346;3.526;2023-02-28T12:42:09;3.22;;;1.90;;
52368;SDS011;38298;50.346;3.526;2023-02-28T12:46:51;4.13;;;2.00;;
52368;SDS011;38298;50.346;3.526;2023-02-28T12:49:19;1.83;;;1.73;;
52368;SDS011;38298;50.346;3.526;2023-02-28T12:51:47;6.53;;;1.95;;
52368;SDS011;38298;50.346;3.526;2023-02-28T13:09:54;3.25;;;1.80;;
52368;SDS011;38298;50.346;3.526;2023-02-28T13:12:21;3.03;;;1.88;;
52368;SDS011;38298;50.346;3.526;2023-02-28T13:14:48;3.25;;;1.92;;
52368;SDS011;38298;50.346;3.526;2023-02-28T13:17:21;4.63;;;2.08;;
52368;SDS011;38298;50.346;3.526;2023-02-28T13:24:52;3.05;;;2.00;;
52368;SDS011;38298;50.346;3.526;2023-02-28T13:27:32;3.20;;;2.20;;
52368;SDS011;38298;50.346;3.526;2023-02-28T13:29:59;3.83;;;2.28;;
52368;SDS011;38298;50.346;3.526;2023-02-28T13:45:30;2.25;;;1.75;;
52368;SDS011;38298;50.346;3.526;2023-02-28T13:50:15;3.08;;;1.38;;
52368;SDS011;38298;50.346;3.526;2023-02-28T13:52:47;3.72;;;1.60;;
52368;SDS011;38298;50.346;3.526;2023-02-28T13:55:20;4.90;;;1.50;;
52368;SDS011;38298;50.346;3.526;2023-02-28T14:00:43;1.67;;;1.20;;
52368;SDS011;38298;50.346;3.526;2023-02-28T14:05:40;1.80;;;1.30;;
52368;SDS011;38298;50.346;3.526;2023-02-28T14:08:08;2.47;;;1.10;;
52368;SDS011;38298;50.346;3.526;2023-02-28T14:13:14;3.00;;;1.15;;
52368;SDS011;38298;50.346;3.526;2023-02-28T14:16:00;1.40;;;1.25;;
52368;SDS011;38298;50.346;3.526;2023-02-28T14:18:33;1.40;;;1.27;;
52368;SDS011;38298;50.346;3.526;2023-02-28T14:26:33;2.13;;;1.90;;
52368;SDS011;38298;50.346;3.526;2023-02-28T14:29:08;2.60;;;2.00;;
52368;SDS011;38298;50.346;3.526;2023-02-28T14:31:43;4.05;;;1.70;;
52368;SDS011;38298;50.346;3.526;2023-02-28T14:36:55;3.33;;;1.42;;
52368;SDS011;38298;50.346;3.526;2023-02-28T14:39:24;1.42;;;1.13;;
52368;SDS011;38298;50.346;3.526;2023-02-28T14:41:51;1.80;;;1.02;;
52368;SDS011;38298;50.346;3.526;2023-02-28T14:46:43;3.28;;;1.02;;
52368;SDS011;38298;50.346;3.526;2023-02-28T14:49:15;1.52;;;1.30;;
52368;SDS011;38298;50.346;3.526;2023-02-28T14:51:42;1.23;;;1.05;;
52368;SDS011;38298;50.346;3.526;2023-02-28T14:54:12;5.38;;;1.20;;
52368;SDS011;38298;50.346;3.526;2023-02-28T14:56:39;3.83;;;1.50;;
52368;SDS011;38298;50.346;3.526;2023-02-28T14:59:06;2.00;;;1.10;;
52368;SDS011;38298;50.346;3.526;2023-02-28T15:01:44;1.77;;;1.33;;
52368;SDS011;38298;50.346;3.526;2023-02-28T15:04:15;1.70;;;1.00;;
52368;SDS011;38298;50.346;3.526;2023-02-28T15:06:44;3.45;;;0.80;;
52368;SDS011;38298;50.346;3.526;2023-02-28T15:09:17;2.13;;;0.90;;
52368;SDS011;38298;50.346;3.526;2023-02-28T15:11:47;1.75;;;1.00;;
52368;SDS011;38298;50.346;3.526;2023-02-28T15:14:15;4.43;;;1.20;;
52368;SDS011;38298;50.346;3.526;2023-02-28T15:19:22;1.77;;;1.13;;
52368;SDS011;38298;50.346;3.526;2023-02-28T15:21:51;1.65;;;1.13;;
52368;SDS011;38298;50.346;3.526;2023-02-28T15:25:02;2.42;;;1.60;;
52368;SDS011;38298;50.346;3.526;2023-02-28T15:27:13;1.63;;;1.20;;
52368;SDS011;38298;50.346;3.526;2023-02-28T15:29:50;1.75;;;1.33;;
52368;SDS011;38298;50.346;3.526;2023-02-28T15:32:23;1.52;;;1.10;;
52368;SDS011;38298;50.346;3.526;2023-02-28T15:34:50;1.90;;;1.02;;
52368;SDS011;38298;50.346;3.526;2023-02-28T15:39:58;1.30;;;1.00;;
52368;SDS011;38298;50.346;3.526;2023-02-28T15:42:29;1.80;;;1.13;;
52368;SDS011;38298;50.346;3.526;2023-02-28T15:44:56;3.67;;;1.00;;
52368;SDS011;38298;50.346;3.526;2023-02-28T15:47:26;5.82;;;1.15;;
52368;SDS011;38298;50.346;3.526;2023-02-28T15:49:57;1.92;;;1.10;;
52368;SDS011;38298;50.346;3.526;2023-02-28T15:52:26;6.35;;;1.20;;
52368;SDS011;38298;50.346;3.526;2023-02-28T15:54:53;1.98;;;1.40;;
52368;SDS011;38298;50.346;3.526;2023-02-28T15:57:20;2.25;;;2.05;;
52368;SDS011;38298;50.346;3.526;2023-02-28T16:00:05;4.32;;;2.25;;
52368;SDS011;38298;50.346;3.526;2023-02-28T16:02:36;3.00;;;2.05;;
52368;SDS011;38298;50.346;3.526;2023-02-28T16:07:32;4.65;;;2.10;;
52368;SDS011;38298;50.346;3.526;2023-02-28T16:09:59;3.90;;;2.60;;
52368;SDS011;38298;50.346;3.526;2023-02-28T16:12:29;3.88;;;2.70;;
52368;SDS011;38298;50.346;3.526;2023-02-28T16:14:57;2.70;;;2.40;;
52368;SDS011;38298;50.346;3.526;2023-02-28T16:17:27;3.97;;;2.63;;
52368;SDS011;38298;50.346;3.526;2023-02-28T16:19:53;3.45;;;2.28;;
52368;SDS011;38298;50.346;3.526;2023-02-28T16:22:20;2.70;;;2.25;;
52368;SDS011;38298;50.346;3.526;2023-02-28T16:24:46;3.72;;;2.30;;
52368;SDS011;38298;50.346;3.526;2023-02-28T16:27:20;6.90;;;2.80;;
52368;SDS011;38298;50.346;3.526;2023-02-28T16:29:47;4.20;;;2.80;;
52368;SDS011;38298;50.346;3.526;2023-02-28T16:32:16;3.28;;;2.70;;
52368;SDS011;38298;50.346;3.526;2023-02-28T16:34:43;3.50;;;2.60;;
52368;SDS011;38298;50.346;3.526;2023-02-28T16:37:10;3.35;;;2.15;;
52368;SDS011;38298;50.346;3.526;2023-02-28T16:39:37;3.72;;;2.67;;
52368;SDS011;38298;50.346;3.526;2023-02-28T16:42:03;3.85;;;2.42;;
52368;SDS011;38298;50.346;3.526;2023-02-28T16:46:55;4.30;;;2.30;;
52368;SDS011;38298;50.346;3.526;2023-02-28T16:49:21;3.75;;;2.70;;
52368;SDS011;38298;50.346;3.526;2023-02-28T16:51:47;5.85;;;3.10;;
52368;SDS011;38298;50.346;3.526;2023-02-28T16:54:13;3.80;;;2.88;;
52368;SDS011;38298;50.346;3.526;2023-02-28T16:56:40;3.72;;;2.83;;
52368;SDS011;38298;50.346;3.526;2023-02-28T16:59:08;7.13;;;2.80;;
52368;SDS011;38298;50.346;3.526;2023-02-28T17:01:36;6.07;;;2.78;;
52368;SDS011;38298;50.346;3.526;2023-02-28T17:04:02;8.30;;;3.10;;
52368;SDS011;38298;50.346;3.526;2023-02-28T17:06:28;3.30;;;2.83;;
52368;SDS011;38298;50.346;3.526;2023-02-28T17:08:55;3.05;;;2.47;;
52368;SDS011;38298;50.346;3.526;2023-02-28T17:11:21;4.25;;;2.85;;
52368;SDS011;38298;50.346;3.526;2023-02-28T17:13:48;5.30;;;3.40;;
52368;SDS011;38298;50.346;3.526;2023-02-28T17:16:30;4.63;;;3.10;;
52368;SDS011;38298;50.346;3.526;2023-02-28T17:18:58;4.90;;;3.03;;
52368;SDS011;38298;50.346;3.526;2023-02-28T17:21:24;7.07;;;3.30;;
52368;SDS011;38298;50.346;3.526;2023-02-28T17:23:50;8.45;;;3.95;;
52368;SDS011;38298;50.346;3.526;2023-02-28T17:26:16;6.72;;;3.92;;
52368;SDS011;38298;50.346;3.526;2023-02-28T17:28:45;10.80;;;3.90;;
52368;SDS011;38298;50.346;3.526;2023-02-28T17:31:11;5.57;;;3.90;;
52368;SDS011;38298;50.346;3.526;2023-02-28T17:33:37;6.53;;;3.35;;
52368;SDS011;38298;50.346;3.526;2023-02-28T17:36:04;5.38;;;3.47;;
52368;SDS011;38298;50.346;3.526;2023-02-28T17:38:30;7.05;;;3.15;;
52368;SDS011;38298;50.346;3.526;2023-02-28T17:40:56;9.23;;;3.88;;
52368;SDS011;38298;50.346;3.526;2023-02-28T17:43:23;4.88;;;3.67;;